createdAt,value
2018-06-20T00:00:37.394Z,18.80
2018-06-20T00:03:06.083Z,18.80
2018-06-20T00:05:35.696Z,18.90
2018-06-20T00:08:04.224Z,18.90
2018-06-20T00:10:32.770Z,18.90
2018-06-20T00:13:01.365Z,18.90
2018-06-20T00:15:29.839Z,18.80
2018-06-20T00:17:59.159Z,18.80
2018-06-20T00:20:27.648Z,18.90
2018-06-20T00:22:56.249Z,18.90
2018-06-20T00:25:24.868Z,18.80
2018-06-20T00:27:53.368Z,18.70
2018-06-20T00:30:21.985Z,18.60
2018-06-20T00:32:50.462Z,18.70
2018-06-20T00:35:19.023Z,18.60
2018-06-20T00:37:47.491Z,18.40
2018-06-20T00:40:16.010Z,18.30
2018-06-20T00:42:44.514Z,18.30
2018-06-20T00:45:13.585Z,18.30
2018-06-20T00:47:42.133Z,18.30
2018-06-20T00:50:10.648Z,18.40
2018-06-20T00:52:39.152Z,18.40
2018-06-20T00:55:07.695Z,18.40
2018-06-20T00:57:36.359Z,18.50
2018-06-20T01:00:04.885Z,18.30
2018-06-20T01:02:33.442Z,18.30
2018-06-20T01:05:01.922Z,18.40
2018-06-20T01:07:30.546Z,18.30
2018-06-20T01:09:59.198Z,18.30
2018-06-20T01:12:27.646Z,18.10
2018-06-20T01:14:56.214Z,18.10
2018-06-20T01:17:24.719Z,18.10
2018-06-20T01:19:53.195Z,18.10
2018-06-20T01:22:21.686Z,18.20
2018-06-20T01:24:50.157Z,18.30
2018-06-20T01:27:18.643Z,18.10
2018-06-20T01:29:47.146Z,18.10
2018-06-20T01:32:15.630Z,18.10
2018-06-20T01:34:44.155Z,18.10
2018-06-20T01:37:12.646Z,18.00
2018-06-20T01:39:41.720Z,18.00
2018-06-20T01:42:10.939Z,17.90
2018-06-20T01:44:39.481Z,17.90
2018-06-20T01:47:07.964Z,17.90
2018-06-20T01:49:36.445Z,18.00
2018-06-20T01:52:04.954Z,18.00
2018-06-20T01:54:33.548Z,17.90
2018-06-20T01:57:02.009Z,17.90
2018-06-20T01:59:30.487Z,17.90
2018-06-20T02:01:58.982Z,17.70
2018-06-20T02:04:27.521Z,17.60
2018-06-20T02:06:56.244Z,17.60
2018-06-20T02:09:25.266Z,17.60
2018-06-20T02:11:53.811Z,17.60
2018-06-20T02:14:22.287Z,17.50
2018-06-20T02:16:51.433Z,17.50
2018-06-20T02:19:19.935Z,17.60
2018-06-20T02:21:48.420Z,17.70
2018-06-20T02:24:16.940Z,17.70
2018-06-20T02:26:45.493Z,17.80
2018-06-20T02:29:13.959Z,17.80
2018-06-20T02:31:42.518Z,17.70
2018-06-20T02:34:11.129Z,17.80
2018-06-20T02:36:39.615Z,17.80
2018-06-20T02:39:08.745Z,17.90
2018-06-20T02:41:37.941Z,17.90
2018-06-20T02:44:06.536Z,18.00
2018-06-20T02:46:35.132Z,18.10
2018-06-20T02:49:03.627Z,18.10
2018-06-20T02:51:32.119Z,18.10
2018-06-20T02:54:01.364Z,18.20
2018-06-20T02:56:30.007Z,18.10
2018-06-20T02:58:58.644Z,18.10
2018-06-20T03:01:27.213Z,18.10
2018-06-20T03:03:55.784Z,18.10
2018-06-20T03:06:24.295Z,18.10
2018-06-20T03:08:58.198Z,18.10
2018-06-20T03:11:27.499Z,18.10
2018-06-20T03:13:56.033Z,18.00
2018-06-20T03:16:24.591Z,17.90
2018-06-20T03:18:53.218Z,17.80
2018-06-20T03:21:21.723Z,17.70
2018-06-20T03:23:50.196Z,17.60
2018-06-20T03:26:18.706Z,17.60
2018-06-20T03:28:47.166Z,17.60
2018-06-20T03:31:16.239Z,17.70
2018-06-20T03:33:44.881Z,17.70
2018-06-20T03:36:13.651Z,17.60
2018-06-20T03:38:42.124Z,17.50
2018-06-20T03:41:10.759Z,17.50
2018-06-20T03:43:39.843Z,17.50
2018-06-20T03:46:08.422Z,17.50
2018-06-20T03:48:36.976Z,17.50
2018-06-20T03:51:05.541Z,17.50
2018-06-20T03:53:34.222Z,17.50
2018-06-20T03:56:02.683Z,17.60
2018-06-20T03:58:31.845Z,17.60
2018-06-20T04:01:00.423Z,17.60
2018-06-20T04:03:28.967Z,17.70
2018-06-20T04:05:57.454Z,17.70
2018-06-20T04:08:26.369Z,17.70
2018-06-20T04:10:56.159Z,17.70
2018-06-20T04:13:24.813Z,17.60
2018-06-20T04:15:53.411Z,17.60
2018-06-20T04:18:26.589Z,17.70
2018-06-20T04:20:55.111Z,17.60
2018-06-20T04:23:23.690Z,17.70
2018-06-20T04:25:52.286Z,17.70
2018-06-20T04:28:21.478Z,17.80
2018-06-20T04:30:50.037Z,17.90
2018-06-20T04:33:18.772Z,17.90
2018-06-20T04:35:47.273Z,18.00
2018-06-20T04:38:16.513Z,18.00
2018-06-20T04:40:45.067Z,18.20
2018-06-20T04:45:42.518Z,18.30
2018-06-20T04:48:11.292Z,18.30
2018-06-20T04:50:39.875Z,18.30
2018-06-20T04:53:08.775Z,18.40
2018-06-20T04:55:37.377Z,18.50
2018-06-20T04:58:06.169Z,18.50
2018-06-20T05:03:03.182Z,18.70
2018-06-20T05:05:32.045Z,18.80
2018-06-20T05:08:00.561Z,18.80
2018-06-20T05:10:29.172Z,18.90
2018-06-20T05:12:57.732Z,18.90
2018-06-20T05:15:26.317Z,19.00
2018-06-20T05:17:54.895Z,19.00
2018-06-20T05:20:23.457Z,19.10
2018-06-20T05:22:52.730Z,19.20
2018-06-20T05:25:21.226Z,19.30
2018-06-20T05:27:49.714Z,19.30
2018-06-20T05:30:18.311Z,19.30
2018-06-20T05:32:46.998Z,19.40
2018-06-20T05:35:15.537Z,19.50
2018-06-20T05:37:44.106Z,19.60
2018-06-20T05:40:12.585Z,19.70
2018-06-20T05:42:41.202Z,19.50
2018-06-20T05:45:09.830Z,19.40
2018-06-20T05:47:38.317Z,19.30
2018-06-20T05:50:07.359Z,19.30
2018-06-20T05:52:35.844Z,19.40
2018-06-20T05:55:04.368Z,19.40
2018-06-20T05:57:32.942Z,19.40
2018-06-20T06:00:02.344Z,19.60
2018-06-20T06:02:30.859Z,19.70
2018-06-20T06:04:59.367Z,19.80
2018-06-20T06:07:27.933Z,20.00
2018-06-20T06:09:56.427Z,20.10
2018-06-20T06:14:54.014Z,20.30
2018-06-20T06:17:22.489Z,20.30
2018-06-20T06:19:50.976Z,20.40
2018-06-20T06:22:19.490Z,20.60
2018-06-20T06:24:48.020Z,20.60
2018-06-20T06:27:16.600Z,20.60
2018-06-20T06:29:45.085Z,20.60
2018-06-20T06:32:13.653Z,20.60
2018-06-20T06:34:42.147Z,20.80
2018-06-20T06:37:10.761Z,20.70
2018-06-20T06:39:39.361Z,20.80
2018-06-20T06:42:07.808Z,20.80
2018-06-20T06:44:36.387Z,21.00
2018-06-20T06:47:04.868Z,21.20
2018-06-20T06:49:34.183Z,21.20
2018-06-20T06:52:02.611Z,21.30
2018-06-20T06:54:31.125Z,21.30
2018-06-20T06:56:59.686Z,21.50
2018-06-20T06:59:28.257Z,21.70
2018-06-20T07:01:57.755Z,21.80
2018-06-20T07:04:26.360Z,21.50
2018-06-20T07:06:54.871Z,21.60
2018-06-20T07:09:24.203Z,21.70
2018-06-20T07:11:52.687Z,21.60
2018-06-20T07:14:21.284Z,21.70
2018-06-20T07:16:49.828Z,22.00
2018-06-20T07:19:18.342Z,22.30
2018-06-20T07:21:46.934Z,22.30
2018-06-20T07:24:16.716Z,22.30
2018-06-20T07:26:45.174Z,22.60
2018-06-20T07:29:13.747Z,22.80
2018-06-20T07:31:43.045Z,22.50
2018-06-20T07:34:11.605Z,22.70
2018-06-20T07:36:40.186Z,22.90
2018-06-20T07:39:09.492Z,22.70
2018-06-20T07:41:38.109Z,22.90
2018-06-20T07:44:06.633Z,23.10
2018-06-20T07:46:35.306Z,23.50
2018-06-20T07:49:03.895Z,23.80
2018-06-20T07:51:32.431Z,24.00
2018-06-20T07:54:01.056Z,24.20
2018-06-20T07:56:29.509Z,24.10
2018-06-20T07:58:58.494Z,24.30
2018-06-20T08:03:44.756Z,24.70
2018-06-20T08:06:18.670Z,24.80
2018-06-20T08:08:52.473Z,25.20
2018-06-20T08:11:26.372Z,25.60
2018-06-20T08:14:00.114Z,25.80
2018-06-20T08:16:33.788Z,25.70
2018-06-20T08:19:07.553Z,26.20
2018-06-20T08:21:36.200Z,26.50
2018-06-20T08:24:04.807Z,26.50
2018-06-20T08:26:33.302Z,27.00
2018-06-20T08:29:01.837Z,27.30
2018-06-20T08:31:30.368Z,27.80
2018-06-20T08:33:58.833Z,28.00
2018-06-20T08:36:27.380Z,28.30
2018-06-20T08:38:56.032Z,28.50
2018-06-20T08:41:24.575Z,28.40
2018-06-20T08:43:53.067Z,28.70
2018-06-20T08:46:21.620Z,28.40
2018-06-20T08:48:50.094Z,27.90
2018-06-20T08:51:18.574Z,28.70
2018-06-20T08:53:47.052Z,28.90
2018-06-20T08:56:15.653Z,29.10
2018-06-20T08:58:44.122Z,29.40
2018-06-20T09:01:12.632Z,29.70
2018-06-20T09:03:41.182Z,30.00
2018-06-20T09:08:22.069Z,30.30
2018-06-20T09:10:55.790Z,30.60
2018-06-20T09:13:29.552Z,30.60
2018-06-20T09:16:03.342Z,30.20
2018-06-20T09:18:37.257Z,30.00
2018-06-20T09:21:05.851Z,29.70
2018-06-20T09:23:34.308Z,29.80
2018-06-20T09:26:02.793Z,29.60
2018-06-20T09:28:31.361Z,29.70
2018-06-20T09:30:59.998Z,29.80
2018-06-20T09:33:28.457Z,29.90
2018-06-20T09:35:56.939Z,30.00
2018-06-20T09:38:25.447Z,29.30
2018-06-20T09:40:54.738Z,29.10
2018-06-20T09:43:23.240Z,29.00
2018-06-20T09:45:51.819Z,29.40
2018-06-20T09:48:20.396Z,30.50
2018-06-20T09:50:54.298Z,30.00
2018-06-20T09:53:23.576Z,30.00
2018-06-20T09:55:52.187Z,30.20
2018-06-20T09:58:20.715Z,30.30
2018-06-20T10:03:00.661Z,30.40
2018-06-20T10:05:34.251Z,30.70
2018-06-20T10:08:08.196Z,30.80
2018-06-20T10:10:42.105Z,30.90
2018-06-20T10:13:12.584Z,31.00
2018-06-20T10:15:41.079Z,31.60
2018-06-20T10:18:09.649Z,32.10
2018-06-20T10:20:38.311Z,32.20
2018-06-20T10:23:06.772Z,32.10
2018-06-20T10:25:35.387Z,32.30
2018-06-20T10:28:03.969Z,32.10
2018-06-20T10:30:32.395Z,31.90
2018-06-20T10:33:01.503Z,32.40
2018-06-20T10:35:30.018Z,32.50
2018-06-20T10:37:59.077Z,32.70
2018-06-20T10:40:27.568Z,33.00
2018-06-20T10:42:56.079Z,33.20
2018-06-20T10:45:29.926Z,33.30
2018-06-20T10:47:58.535Z,33.00
2018-06-20T10:50:27.079Z,32.60
2018-06-20T10:52:55.559Z,32.60
2018-06-20T10:55:24.165Z,31.90
2018-06-20T10:57:58.030Z,31.30
2018-06-20T11:00:31.866Z,30.70
2018-06-20T11:03:05.659Z,30.30
2018-06-20T11:05:39.565Z,30.40
2018-06-20T11:08:13.953Z,30.40
2018-06-20T11:10:48.013Z,30.20
2018-06-20T11:13:16.598Z,30.50
2018-06-20T11:15:45.681Z,31.20
2018-06-20T11:18:14.265Z,31.40
2018-06-20T11:20:47.880Z,31.30
2018-06-20T11:23:16.466Z,31.40
2018-06-20T11:25:44.924Z,30.80
2018-06-20T11:28:14.590Z,30.90
2018-06-20T11:30:44.340Z,30.90
2018-06-20T11:33:13.142Z,30.60
2018-06-20T11:35:41.986Z,30.40
2018-06-20T11:38:10.552Z,30.90
2018-06-20T11:40:39.023Z,31.20
2018-06-20T11:43:08.104Z,31.90
2018-06-20T11:45:41.838Z,31.40
2018-06-20T11:48:10.311Z,30.80
2018-06-20T11:50:38.803Z,30.90
2018-06-20T11:53:10.351Z,30.50
2018-06-20T11:55:40.912Z,30.90
2018-06-20T11:58:14.565Z,31.10
2018-06-20T12:00:48.395Z,30.80
2018-06-20T12:03:22.189Z,31.40
2018-06-20T12:05:56.020Z,31.90
2018-06-20T12:08:29.885Z,31.70
2018-06-20T12:11:03.723Z,31.30
2018-06-20T12:13:37.459Z,31.20
2018-06-20T12:16:11.300Z,31.50
2018-06-20T12:18:45.083Z,31.80
2018-06-20T12:21:18.916Z,31.30
2018-06-20T12:23:52.859Z,31.20
2018-06-20T12:26:27.375Z,30.90
2018-06-20T12:34:08.521Z,31.30
2018-06-20T12:36:42.304Z,30.80
2018-06-20T12:39:09.949Z,30.90
2018-06-20T12:41:43.851Z,31.00
2018-06-20T12:44:17.985Z,30.70
2018-06-20T12:46:51.830Z,31.10
2018-06-20T12:49:23.394Z,30.80
2018-06-20T12:51:51.921Z,31.20
2018-06-20T12:54:20.419Z,31.60
2018-06-20T12:56:48.960Z,30.90
2018-06-20T12:59:17.401Z,30.70
2018-06-20T13:01:46.510Z,30.50
2018-06-20T13:04:14.982Z,30.50
2018-06-20T13:06:43.418Z,30.90
2018-06-20T13:09:13.073Z,31.00
2018-06-20T13:11:42.087Z,30.80
2018-06-20T13:14:11.512Z,31.40
2018-06-20T13:16:39.994Z,31.20
2018-06-20T13:21:36.846Z,30.90
2018-06-20T13:24:05.642Z,31.30
2018-06-20T13:26:34.222Z,31.80
2018-06-20T13:29:02.705Z,32.00
2018-06-20T13:31:36.528Z,31.40
2018-06-20T13:36:16.166Z,31.60
2018-06-20T13:38:49.853Z,31.70
2018-06-20T13:41:23.687Z,32.20
2018-06-20T13:43:57.499Z,32.10
2018-06-20T13:46:31.412Z,32.50
2018-06-20T13:48:59.951Z,32.70
2018-06-20T13:51:28.471Z,32.60
2018-06-20T13:53:56.942Z,32.40
2018-06-20T13:58:53.676Z,31.70
2018-06-20T14:01:28.854Z,31.40
2018-06-20T14:03:57.478Z,30.90
2018-06-20T14:06:26.009Z,30.80
2018-06-20T14:08:54.496Z,30.80
2018-06-20T14:11:23.022Z,30.40
2018-06-20T14:13:51.923Z,30.10
2018-06-20T14:16:20.477Z,29.90
2018-06-20T14:18:49.643Z,30.00
2018-06-20T14:21:23.290Z,30.40
2018-06-20T14:23:51.818Z,30.60
2018-06-20T14:26:21.038Z,30.40
2018-06-20T14:28:49.602Z,30.30
2018-06-20T14:33:57.179Z,30.20
2018-06-20T14:36:30.804Z,30.40
2018-06-20T14:39:04.530Z,30.20
2018-06-20T14:41:38.357Z,30.40
2018-06-20T14:44:08.863Z,30.30
2018-06-20T14:46:37.372Z,30.20
2018-06-20T14:49:06.573Z,30.20
2018-06-20T14:51:35.193Z,30.30
2018-06-20T14:54:03.699Z,30.20
2018-06-20T14:56:32.251Z,30.20
2018-06-20T14:59:00.773Z,30.10
2018-06-20T15:01:29.328Z,30.10
2018-06-20T15:03:57.789Z,30.10
2018-06-20T15:06:26.506Z,30.20
2018-06-20T15:08:55.258Z,30.10
2018-06-20T15:11:23.776Z,30.20
2018-06-20T15:13:53.057Z,30.30
2018-06-20T15:16:26.760Z,30.50
2018-06-20T15:18:55.337Z,30.30
2018-06-20T15:21:23.874Z,30.30
2018-06-20T15:23:52.503Z,30.20
2018-06-20T15:26:26.238Z,30.20
2018-06-20T15:29:00.738Z,30.20
2018-06-20T15:31:34.717Z,30.20
2018-06-20T15:34:08.576Z,30.30
2018-06-20T15:36:42.337Z,30.40
2018-06-20T15:39:10.978Z,30.50
2018-06-20T15:41:39.534Z,30.50
2018-06-20T15:44:08.089Z,30.40
2018-06-20T15:46:36.714Z,30.30
2018-06-20T15:49:05.599Z,30.20
2018-06-20T15:51:34.192Z,29.90
2018-06-20T15:54:02.687Z,29.90
2018-06-20T15:56:31.264Z,30.00
2018-06-20T15:58:59.726Z,30.10
2018-06-20T16:01:28.363Z,30.10
2018-06-20T16:03:56.874Z,30.00
2018-06-20T16:06:25.361Z,29.90
2018-06-20T16:08:59.145Z,29.80
2018-06-20T16:11:27.621Z,29.90
2018-06-20T16:13:56.141Z,29.90
2018-06-20T16:16:24.799Z,30.10
2018-06-20T16:18:58.712Z,30.10
2018-06-20T16:21:32.642Z,30.00
2018-06-20T16:24:06.493Z,30.00
2018-06-20T16:28:47.318Z,30.10
2018-06-20T16:31:15.830Z,30.00
2018-06-20T16:33:44.458Z,29.80
2018-06-20T16:36:12.964Z,29.90
2018-06-20T16:38:41.417Z,29.90
2018-06-20T16:41:10.085Z,30.00
2018-06-20T16:43:38.587Z,29.90
2018-06-20T16:46:07.226Z,30.00
2018-06-20T16:48:35.671Z,30.20
2018-06-20T16:51:04.166Z,30.10
2018-06-20T16:53:32.717Z,29.90
2018-06-20T16:56:01.218Z,29.80
2018-06-20T16:58:30.007Z,29.80
2018-06-20T17:01:03.842Z,29.70
2018-06-20T17:03:32.382Z,29.80
2018-06-20T17:06:00.880Z,29.60
2018-06-20T17:08:29.414Z,29.60
2018-06-20T17:13:31.386Z,29.50
2018-06-20T17:18:38.721Z,29.50
2018-06-20T17:21:12.553Z,29.50
2018-06-20T17:23:46.467Z,29.30
2018-06-20T17:26:14.972Z,29.30
2018-06-20T17:28:43.554Z,29.20
2018-06-20T17:31:12.109Z,29.20
2018-06-20T17:33:40.671Z,29.10
2018-06-20T17:36:09.337Z,29.10
2018-06-20T17:38:37.811Z,29.10
2018-06-20T17:41:06.276Z,29.10
2018-06-20T17:43:34.770Z,29.00
2018-06-20T17:46:03.309Z,28.90
2018-06-20T17:48:31.804Z,28.90
2018-06-20T17:51:00.315Z,28.80
2018-06-20T17:53:28.827Z,28.80
2018-06-20T17:55:57.372Z,28.70
2018-06-20T17:58:25.875Z,28.60
2018-06-20T18:00:59.778Z,28.60
2018-06-20T18:03:28.287Z,28.50
2018-06-20T18:06:02.043Z,28.50
2018-06-20T18:08:35.658Z,28.40
2018-06-20T18:13:11.522Z,28.40
2018-06-20T18:15:45.268Z,28.30
2018-06-20T18:18:13.744Z,28.20
2018-06-20T18:20:42.403Z,28.10
2018-06-20T18:23:11.089Z,28.10
2018-06-20T18:25:39.569Z,28.10
2018-06-20T18:28:08.131Z,27.90
2018-06-20T18:30:37.546Z,27.80
2018-06-20T18:33:06.058Z,27.80
2018-06-20T18:35:39.213Z,27.70
2018-06-20T18:38:07.999Z,27.60
2018-06-20T18:40:36.508Z,27.50
2018-06-20T18:43:05.027Z,27.50
2018-06-20T18:45:33.644Z,27.40
2018-06-20T18:48:07.319Z,27.30
2018-06-20T18:50:35.856Z,27.30
2018-06-20T18:53:04.354Z,27.20
2018-06-20T18:55:32.913Z,27.10
2018-06-20T18:58:06.618Z,27.00
2018-06-20T19:00:40.518Z,26.90
2018-06-20T19:03:14.469Z,26.80
2018-06-20T19:05:48.392Z,26.80
2018-06-20T19:08:22.188Z,26.70
2018-06-20T19:10:50.827Z,26.60
2018-06-20T19:13:19.648Z,26.60
2018-06-20T19:15:48.427Z,26.50
2018-06-20T19:18:20.083Z,26.50
2018-06-20T19:20:51.795Z,26.40
2018-06-20T19:23:20.884Z,26.40
2018-06-20T19:25:49.678Z,26.30
2018-06-20T19:28:18.241Z,26.20
2018-06-20T19:30:46.985Z,26.20
2018-06-20T19:33:15.446Z,26.10
2018-06-20T19:35:44.175Z,26.10
2018-06-20T19:38:12.953Z,26.00
2018-06-20T19:40:41.550Z,25.90
2018-06-20T19:43:10.638Z,25.80
2018-06-20T19:45:39.225Z,25.80
2018-06-20T19:48:07.839Z,25.70
2018-06-20T19:50:36.364Z,25.60
2018-06-20T19:53:04.863Z,25.60
2018-06-20T19:55:33.367Z,25.50
2018-06-20T19:58:01.824Z,25.40
2018-06-20T20:00:30.353Z,25.40
2018-06-20T20:02:58.873Z,25.30
2018-06-20T20:05:27.368Z,25.20
2018-06-20T20:07:55.886Z,25.10
2018-06-20T20:10:24.556Z,25.00
2018-06-20T20:12:53.294Z,25.00
2018-06-20T20:15:21.794Z,24.80
2018-06-20T20:17:50.357Z,24.70
2018-06-20T20:20:19.012Z,24.70
2018-06-20T20:22:47.408Z,24.70
2018-06-20T20:25:16.012Z,24.50
2018-06-20T20:27:44.552Z,24.50
2018-06-20T20:30:13.086Z,24.50
2018-06-20T20:32:41.598Z,24.40
2018-06-20T20:35:10.284Z,24.40
2018-06-20T20:37:39.177Z,24.40
2018-06-20T20:40:07.685Z,24.50
2018-06-20T20:42:36.162Z,24.50
2018-06-20T20:45:04.870Z,24.50
2018-06-20T20:47:33.849Z,24.40
2018-06-20T20:50:02.363Z,24.40
2018-06-20T20:52:30.876Z,24.50
2018-06-20T20:54:59.495Z,24.40
2018-06-20T20:57:28.114Z,24.40
2018-06-20T20:59:56.589Z,24.30
2018-06-20T21:02:25.140Z,24.20
2018-06-20T21:04:53.588Z,24.30
2018-06-20T21:07:22.196Z,24.20
2018-06-20T21:09:50.698Z,24.20
2018-06-20T21:12:19.209Z,24.10
2018-06-20T21:14:47.919Z,24.10
2018-06-20T21:17:16.441Z,24.10
2018-06-20T21:19:44.985Z,24.00
2018-06-20T21:22:13.457Z,23.90
2018-06-20T21:24:41.987Z,23.80
2018-06-20T21:27:10.462Z,23.80
2018-06-20T21:29:38.956Z,23.80
2018-06-20T21:32:07.442Z,23.80
2018-06-20T21:34:36.023Z,23.70
2018-06-20T21:37:04.567Z,23.70
2018-06-20T21:39:46.563Z,23.60
2018-06-20T21:46:15.012Z,23.50
2018-06-20T21:48:43.504Z,23.40
2018-06-20T21:51:12.017Z,23.40
2018-06-20T21:53:40.584Z,23.40
2018-06-20T21:56:09.235Z,23.30
2018-06-20T21:58:38.205Z,23.40
2018-06-20T22:01:06.717Z,23.40
2018-06-20T22:03:35.214Z,23.40
2018-06-20T22:06:03.841Z,23.30
2018-06-20T22:08:32.282Z,23.30
2018-06-20T22:11:00.834Z,23.20
2018-06-20T22:13:29.526Z,23.10
2018-06-20T22:15:58.138Z,23.10
2018-06-20T22:18:27.613Z,23.00
2018-06-20T22:20:56.249Z,23.00
2018-06-20T22:23:24.835Z,22.90
2018-06-20T22:25:53.700Z,22.90
2018-06-20T22:28:22.290Z,22.90
2018-06-20T22:30:50.835Z,22.90
2018-06-20T22:33:19.625Z,22.90
2018-06-20T22:35:48.441Z,22.90
2018-06-20T22:38:18.442Z,22.80
2018-06-20T22:40:47.039Z,22.70
2018-06-20T22:43:16.141Z,22.70
2018-06-20T22:45:44.836Z,22.70
2018-06-20T22:48:14.008Z,22.60
2018-06-20T22:50:42.665Z,22.70
2018-06-20T22:53:11.433Z,22.70
2018-06-20T22:55:40.331Z,22.60
2018-06-20T22:58:08.980Z,22.50
2018-06-20T23:00:38.237Z,22.40
2018-06-20T23:03:07.394Z,22.40
2018-06-20T23:05:36.143Z,22.40
2018-06-20T23:08:04.830Z,22.40
2018-06-20T23:10:33.555Z,22.40
2018-06-20T23:13:02.477Z,22.20
2018-06-20T23:15:31.211Z,22.20
2018-06-20T23:18:00.440Z,22.20
2018-06-20T23:20:29.048Z,22.20
2018-06-20T23:22:58.727Z,22.10
2018-06-20T23:25:27.379Z,22.10
2018-06-20T23:27:56.862Z,22.00
2018-06-20T23:30:26.122Z,22.00
2018-06-20T23:32:54.779Z,21.80
2018-06-20T23:35:23.433Z,21.70
2018-06-20T23:37:52.763Z,21.80
2018-06-20T23:40:21.946Z,21.80
2018-06-20T23:42:51.185Z,21.60
2018-06-20T23:45:19.921Z,21.50
2018-06-20T23:47:48.550Z,21.40
2018-06-20T23:50:17.074Z,21.30
2018-06-20T23:52:46.918Z,21.30
2018-06-20T23:55:15.720Z,21.20
2018-06-20T23:57:44.199Z,21.10
